Historique des stations

Retrouvez les conditions météo en temps réel en cliquant ici...

Station météo de Issoudun

Altitude de la station : 141 m







Données météorologiques pour le 20/10/2020
Date
Heure
Températures Humidité Point de rosée Vitesse
du vent
Direction Rafales Windchill Pression Pluviométrie
Cumul
Date
Heure
Températures Humidité Point de rosée Vitesse
du vent
Direction Rafales Windchill Pression Pluviométrie
Cumul
20/10/2020 19:4414.6 °C87 %12.2 °C6 km/hESE16 km/h14.4 1006 hPa1 mm
20/10/2020 19:2914.4 °C88 %12.2 °C11 km/hE16 km/h13.3 1006 hPa1 mm
20/10/2020 19:1414.5 °C88 %12.8 °C6 km/hESE16 km/h14.4 1006 hPa1 mm
20/10/2020 18:5914.6 °C87 %12.8 °C3 km/hSE16 km/h14.4 1006 hPa1 mm
20/10/2020 18:4414.5 °C88 %12.8 °C11 km/hESE16 km/h13.3 1006 hPa1 mm
20/10/2020 18:2914.5 °C89 %12.8 °C3 km/hESE16 km/h14.4 1006 hPa1 mm
20/10/2020 18:1414.4 °C89 %12.8 °C5 km/hSE16 km/h14.4 1007 hPa1 mm
20/10/2020 17:5914.4 °C89 %12.8 °C2 km/hESE16 km/h14.4 1007 hPa1 mm
20/10/2020 17:4414.4 °C89 %12.8 °C5 km/hESE16 km/h14.4 1007 hPa1 mm
20/10/2020 17:2914.6 °C89 %12.8 °C5 km/hSE16 km/h14.4 1007 hPa1 mm
20/10/2020 17:1414.6 °C89 %12.8 °C10 km/hESE16 km/h13.9 1007 hPa1 mm
20/10/2020 16:5914.6 °C89 %12.8 °C5 km/hESE16 km/h14.4 1008 hPa1 mm
20/10/2020 16:4414.6 °C89 %12.8 °C6 km/hE16 km/h14.4 1008 hPa1 mm
20/10/2020 16:2914.7 °C89 %12.8 °C11 km/hE16 km/h13.3 1008 hPa1 mm
20/10/2020 16:1414.7 °C89 %12.8 °C8 km/hSE16 km/h15.0 1008 hPa1 mm
20/10/2020 15:5914.8 °C89 %12.8 °C5 km/hE16 km/h15.0 1008 hPa1 mm
20/10/2020 15:4414.6 °C88 %12.8 °C6 km/hESE16 km/h14.4 1008 hPa0.8 mm
20/10/2020 15:2914.4 °C89 %12.8 °C6 km/hESE16 km/h14.4 1008 hPa0.8 mm
20/10/2020 15:1414.6 °C89 %12.8 °C6 km/hESE16 km/h14.4 1008 hPa0.8 mm
20/10/2020 14:5914.3 °C88 %12.2 °C6 km/hESE16 km/h14.4 1009 hPa0.8 mm
20/10/2020 14:4514.2 °C88 %12.2 °C5 km/hESE16 km/h14.4 1009 hPa0.6 mm
20/10/2020 14:3014.1 °C88 %12.2 °C5 km/hE16 km/h13.9 1009 hPa0.6 mm
20/10/2020 14:1514.0 °C88 %12.2 °C5 km/hESE16 km/h13.9 1009 hPa0.6 mm
20/10/2020 14:0013.9 °C88 %12.2 °C3 km/hESE16 km/h13.9 1009 hPa0.6 mm
20/10/2020 13:4513.8 °C88 %11.7 °C6 km/hE16 km/h13.9 1009 hPa0.6 mm
20/10/2020 13:3013.6 °C88 %11.7 °C11 km/hSE16 km/h12.2 1009 hPa0.6 mm
20/10/2020 13:1513.4 °C87 %11.1 °C10 km/hESE16 km/h12.8 1010 hPa0.6 mm
20/10/2020 13:0013.4 °C87 %11.1 °C10 km/hESE16 km/h12.8 1010 hPa0.6 mm
20/10/2020 12:4513.3 °C87 %11.1 °C6 km/hE16 km/h13.3 1010 hPa0.6 mm
20/10/2020 12:3013.2 °C86 %11.1 °C10 km/hESE16 km/h12.8 1010 hPa0.6 mm
20/10/2020 12:1513.1 °C87 %11.1 °C6 km/hESE16 km/h13.3 1010 hPa0.6 mm
20/10/2020 12:0013.0 °C88 %11.1 °C5 km/hE16 km/h12.8 1010 hPa0.6 mm
20/10/2020 11:4512.8 °C88 %11.1 °C2 km/hE16 km/h12.8 1010 hPa0.6 mm
20/10/2020 11:3012.6 °C88 %10.6 °C5 km/hESE16 km/h12.8 1009 hPa0.6 mm
20/10/2020 11:1512.4 °C88 %10.6 °C11 km/hESE16 km/h11.1 1009 hPa0.6 mm
20/10/2020 11:0012.3 °C88 %10.6 °C13 km/hE16 km/h10.6 1009 hPa0.6 mm
20/10/2020 10:4512.4 °C87 %10.6 °C10 km/hESE14 km/h11.1 1009 hPa0.4 mm
20/10/2020 10:3012.4 °C86 %10.0 °C5 km/hE14 km/h12.2 1009 hPa0.2 mm
20/10/2020 10:1512.3 °C86 %10.0 °C5 km/hESE14 km/h12.2 1009 hPa0.2 mm
20/10/2020 10:0012.3 °C87 %10.0 °C6 km/hE14 km/h12.2 1009 hPa0.2 mm
20/10/2020 09:4512.2 °C87 %10.0 °C6 km/hE14 km/h12.2 1009 hPa0.2 mm
20/10/2020 09:2912.3 °C85 %10.0 °C3 km/hE14 km/h12.2 1009 hPa-
20/10/2020 09:1412.6 °C84 %10.0 °C3 km/hESE14 km/h12.8 1009 hPa-
20/10/2020 08:5913.1 °C82 %10.0 °C5 km/hESE14 km/h13.3 1008 hPa-
20/10/2020 08:4413.0 °C81 %10.0 °C3 km/hESE14 km/h12.8 1008 hPa-
20/10/2020 08:2912.8 °C81 %9.4 °C3 km/hSSE14 km/h12.8 1009 hPa-
20/10/2020 08:1412.6 °C81 %9.4 °C2 km/hS14 km/h12.8 1009 hPa-
20/10/2020 07:5912.6 °C81 %9.4 °C-SSE14 km/h12.8 1008 hPa-
20/10/2020 07:4412.2 °C80 %8.9 °C-SSE14 km/h12.2 1008 hPa-
20/10/2020 07:2912.4 °C79 %8.9 °C2 km/hSE14 km/h12.2 1008 hPa-
20/10/2020 07:1412.4 °C79 %8.9 °C2 km/hESE14 km/h12.2 1008 hPa-
20/10/2020 06:5912.5 °C79 %8.9 °C-SE14 km/h12.8 1008 hPa-
20/10/2020 06:4412.2 °C80 %8.9 °C3 km/hSE14 km/h12.2 1008 hPa-
20/10/2020 06:2911.9 °C81 %8.9 °C5 km/hESE14 km/h11.7 1008 hPa-
20/10/2020 06:1411.4 °C83 %8.9 °C5 km/hESE14 km/h11.7 1009 hPa-
20/10/2020 05:5910.6 °C86 %8.3 °C10 km/hESE14 km/h9.4 1009 hPa-
20/10/2020 05:4410.0 °C87 %7.8 °C6 km/hESE14 km/h8.9 1009 hPa-
20/10/2020 05:299.9 °C86 %7.8 °C6 km/hESE14 km/h8.9 1009 hPa-
20/10/2020 05:149.8 °C86 %7.8 °C6 km/hESE14 km/h8.9 1009 hPa-
20/10/2020 04:599.8 °C86 %7.8 °C6 km/hESE14 km/h8.9 1009 hPa-
20/10/2020 04:449.7 °C86 %7.8 °C6 km/hESE14 km/h8.9 1009 hPa-
20/10/2020 04:299.7 °C86 %7.2 °C10 km/hESE13 km/h7.8 1009 hPa-
20/10/2020 04:149.8 °C85 %7.2 °C6 km/hESE13 km/h8.9 1009 hPa-
20/10/2020 04:009.4 °C86 %7.2 °C8 km/hE11 km/h8.3 1010 hPa-
20/10/2020 03:459.2 °C87 %7.2 °C10 km/hE11 km/h7.8 1010 hPa-
20/10/2020 03:308.9 °C86 %6.7 °C5 km/hE11 km/h8.3 1010 hPa-
20/10/2020 03:158.9 °C87 %6.7 °C5 km/hE11 km/h8.3 1009 hPa-
20/10/2020 03:008.8 °C87 %6.7 °C6 km/hE11 km/h7.8 1009 hPa-
20/10/2020 02:458.7 °C87 %6.7 °C6 km/hE11 km/h7.8 1009 hPa-
20/10/2020 02:309.1 °C87 %7.2 °C8 km/hE11 km/h7.8 1009 hPa-
20/10/2020 02:159.0 °C87 %7.2 °C6 km/hE11 km/h7.8 1009 hPa-
20/10/2020 02:008.8 °C88 %7.2 °C6 km/hE11 km/h7.8 1009 hPa-
20/10/2020 01:458.6 °C88 %6.7 °C5 km/hE11 km/h7.8 1009 hPa-
20/10/2020 01:308.5 °C88 %6.7 °C5 km/hENE11 km/h7.8 1009 hPa-
20/10/2020 01:158.4 °C88 %6.7 °C6 km/hE10 km/h7.2 1009 hPa-
20/10/2020 01:008.5 °C87 %6.7 °C5 km/hE10 km/h7.8 1009 hPa-
20/10/2020 00:458.5 °C87 %6.7 °C3 km/hE10 km/h7.8 1010 hPa-
20/10/2020 00:298.5 °C86 %6.1 °C3 km/hE10 km/h7.8 1010 hPa-
20/10/2020 00:148.9 °C86 %6.7 °C5 km/hE10 km/h8.3 1010 hPa-


Minima :

Température : 8.4 °C
Humidité : 79 %
Point de rosée : 6.1 °C
Vent moyen : 2 km/h
Windchill : 7.2
Pression atm. : 1006 hPa
Maxima :

Température : 14.8 °C
Humidité : 89 %
Point de rosée : 12.8 °C
Vent moyen : 13 km/h
Windchill : 15.0
Pression atm. : 1010 hPa
Rafales max : 16 km/h
Cumul de pluie sur 24H : 1 mm

Issoudun est une commune du département Indre (36).
La station météorologique du réseau de l'association la plus proche de Issoudun est celle de Ménétréols-sous-Vatan



Icône Facebook Association Météo Centre Icône Twitter Association Météo Centre Icône Chaîne Youtube Association Météo Centre Icône contact Association Météo Centre Icône Insta Association Météo Centre